createdAt,value
2018-08-13T00:02:13.592Z,101154.67
2018-08-13T00:05:17.057Z,101149.55
2018-08-13T00:08:21.138Z,101138.95
2018-08-13T00:11:24.908Z,101143.48
2018-08-13T00:14:28.377Z,101133.39
2018-08-13T00:17:31.716Z,101134.41
2018-08-13T00:20:35.375Z,101137.92
2018-08-13T00:23:41.102Z,101131.01
2018-08-13T00:26:44.409Z,101131.03
2018-08-13T00:29:47.646Z,101128.77
2018-08-13T00:32:51.148Z,101130.46
2018-08-13T00:35:54.452Z,101130.85
2018-08-13T00:38:57.856Z,101124.10
2018-08-13T00:42:01.133Z,101121.53
2018-08-13T00:45:05.374Z,101121.84
2018-08-13T00:48:08.674Z,101116.57
2018-08-13T00:51:12.128Z,101120.08
2018-08-13T00:54:17.470Z,101111.75
2018-08-13T00:57:21.800Z,101105.47
2018-08-13T01:00:25.392Z,101103.04
2018-08-13T01:03:28.734Z,101107.27
2018-08-13T01:06:33.055Z,101104.95
2018-08-13T01:09:36.296Z,101106.35
2018-08-13T01:12:39.855Z,101102.74
2018-08-13T01:15:43.113Z,101093.01
2018-08-13T01:18:46.308Z,101089.38
2018-08-13T01:21:50.731Z,101088.83
2018-08-13T01:24:53.945Z,101096.85
2018-08-13T01:27:57.267Z,101099.28
2018-08-13T01:31:00.507Z,101092.97
2018-08-13T01:34:03.831Z,101090.20
2018-08-13T01:37:07.121Z,101085.25
2018-08-13T01:40:11.472Z,101086.44
2018-08-13T01:43:14.743Z,101082.80
2018-08-13T01:46:17.931Z,101081.55
2018-08-13T01:49:21.411Z,101078.36
2018-08-13T01:52:24.726Z,101077.74
2018-08-13T01:55:28.056Z,101076.32
2018-08-13T01:58:31.362Z,101074.55
2018-08-13T02:01:34.717Z,101069.47
2018-08-13T02:04:37.967Z,101073.24
2018-08-13T02:07:41.315Z,101073.11
2018-08-13T02:10:44.656Z,101067.19
2018-08-13T02:13:51.931Z,101057.60
2018-08-13T02:16:55.495Z,101054.75
2018-08-13T02:19:58.802Z,101049.96
2018-08-13T02:23:02.138Z,101043.43
2018-08-13T02:26:05.432Z,101035.52
2018-08-13T02:29:10.251Z,101034.32
2018-08-13T02:32:13.591Z,101033.55
2018-08-13T02:35:17.221Z,101033.66
2018-08-13T02:38:21.579Z,101033.58
2018-08-13T02:41:24.837Z,101036.11
2018-08-13T02:44:28.696Z,101033.75
2018-08-13T02:47:33.241Z,101024.93
2018-08-13T02:50:36.632Z,101019.56
2018-08-13T02:53:40.474Z,101021.20
2018-08-13T02:56:44.183Z,101022.17
2018-08-13T02:59:47.586Z,101027.20
2018-08-13T03:02:51.951Z,101023.18
2018-08-13T03:05:55.240Z,101010.22
2018-08-13T03:08:58.559Z,101015.18
2018-08-13T03:12:01.839Z,101009.18
2018-08-13T03:15:07.445Z,101006.62
2018-08-13T03:18:10.617Z,101016.94
2018-08-13T03:21:13.928Z,101014.09
2018-08-13T03:24:17.221Z,101019.95
2018-08-13T03:27:22.064Z,101017.69
2018-08-13T03:30:25.377Z,101005.98
2018-08-13T03:33:29.507Z,101007.45
2018-08-13T03:36:34.013Z,101004.77
2018-08-13T03:39:37.757Z,100995.94
2018-08-13T03:42:41.071Z,100980.48
2018-08-13T03:45:44.431Z,100971.75
2018-08-13T03:48:47.839Z,100977.21
2018-08-13T03:51:51.070Z,100984.82
2018-08-13T03:54:54.396Z,100981.68
2018-08-13T03:57:57.687Z,100979.91
2018-08-13T04:01:00.999Z,100989.63
2018-08-13T04:04:04.304Z,100984.35
2018-08-13T04:07:07.602Z,100983.00
2018-08-13T04:10:12.316Z,100984.19
2018-08-13T04:13:15.635Z,100985.01
2018-08-13T04:16:19.435Z,100991.55
2018-08-13T04:19:22.829Z,101000.36
2018-08-13T04:22:26.108Z,100999.43
2018-08-13T04:25:29.544Z,100987.16
2018-08-13T04:28:32.869Z,100993.20
2018-08-13T04:31:36.134Z,100997.89
2018-08-13T04:34:39.361Z,100995.76
2018-08-13T04:37:43.630Z,100982.14
2018-08-13T04:40:46.929Z,100964.32
2018-08-13T04:43:51.099Z,100938.09
2018-08-13T04:46:54.302Z,100961.35
2018-08-13T04:49:58.642Z,100960.01
2018-08-13T04:53:01.965Z,100962.40
2018-08-13T04:56:05.252Z,100956.87
2018-08-13T04:59:12.112Z,100952.61
2018-08-13T05:02:15.499Z,100944.38
2018-08-13T05:05:19.879Z,100953.40
2018-08-13T05:08:23.181Z,100955.62
2018-08-13T05:11:28.547Z,100966.21
2018-08-13T05:14:31.805Z,100969.37
2018-08-13T05:17:35.121Z,100982.03
2018-08-13T05:20:38.371Z,100989.48
2018-08-13T05:23:41.713Z,100991.92
2018-08-13T05:26:45.133Z,101004.64
2018-08-13T05:29:49.024Z,101004.46
2018-08-13T05:32:52.364Z,101014.25
2018-08-13T05:35:55.742Z,101027.07
2018-08-13T05:38:59.054Z,101022.66
2018-08-13T05:42:02.533Z,101026.71
2018-08-13T05:45:07.333Z,101037.19
2018-08-13T05:48:10.669Z,101051.13
2018-08-13T05:51:13.946Z,101060.89
2018-08-13T05:54:17.292Z,101070.89
2018-08-13T05:57:21.592Z,101092.08
2018-08-13T06:00:26.801Z,101098.85
2018-08-13T06:03:30.332Z,101161.40
2018-08-13T06:06:33.582Z,101178.67
2018-08-13T06:09:36.918Z,101162.56
2018-08-13T06:12:40.606Z,101164.93
2018-08-13T06:15:43.885Z,101173.22
2018-08-13T06:18:47.296Z,101164.59
2018-08-13T06:21:51.501Z,101172.36
2018-08-13T06:24:54.797Z,101164.30
2018-08-13T06:27:58.270Z,101155.87
2018-08-13T06:31:02.635Z,101153.93
2018-08-13T06:34:05.873Z,101144.70
2018-08-13T06:37:09.302Z,101161.27
2018-08-13T06:40:12.928Z,101163.41
2018-08-13T06:43:16.365Z,101161.01
2018-08-13T06:46:21.427Z,101164.33
2018-08-13T06:49:24.728Z,101167.57
2018-08-13T06:52:30.148Z,101164.34
2018-08-13T06:55:35.047Z,101165.21
2018-08-13T06:58:38.402Z,101173.81
2018-08-13T07:01:41.837Z,101197.34
2018-08-13T07:04:45.206Z,101203.54
2018-08-13T07:07:49.097Z,101189.81
2018-08-13T07:10:53.198Z,101194.95
2018-08-13T07:13:56.553Z,101195.96
2018-08-13T07:17:00.912Z,101198.95
2018-08-13T07:20:05.119Z,101202.66
2018-08-13T07:23:08.412Z,101204.47
2018-08-13T07:26:11.676Z,101204.34
2018-08-13T07:29:15.065Z,101203.21
2018-08-13T07:32:18.335Z,101207.32
2018-08-13T07:35:21.783Z,101202.09
2018-08-13T07:38:25.147Z,101209.34
2018-08-13T07:41:28.488Z,101213.66
2018-08-13T07:44:32.061Z,101223.03
2018-08-13T07:47:35.471Z,101235.11
2018-08-13T07:50:38.890Z,101234.07
2018-08-13T07:53:42.223Z,101245.03
2018-08-13T07:56:45.564Z,101251.24
2018-08-13T07:59:50.002Z,101268.09
2018-08-13T08:02:53.410Z,101283.45
2018-08-13T08:05:56.688Z,101287.22
2018-08-13T08:09:00.141Z,101289.72
2018-08-13T08:12:03.465Z,101285.12
2018-08-13T08:15:10.397Z,101278.66
2018-08-13T08:18:13.781Z,101277.75
2018-08-13T08:21:17.203Z,101265.14
2018-08-13T08:24:21.433Z,101264.96
2018-08-13T08:27:25.868Z,101252.49
2018-08-13T08:30:29.257Z,101250.96
2018-08-13T08:33:33.572Z,101243.86
2018-08-13T08:36:37.076Z,101242.59
2018-08-13T08:39:40.424Z,101238.19
2018-08-13T08:42:43.784Z,101244.96
2018-08-13T08:45:47.187Z,101247.92
2018-08-13T08:48:51.134Z,101252.18
2018-08-13T08:51:54.565Z,101257.03
2018-08-13T08:54:57.941Z,101253.16
2018-08-13T08:58:01.246Z,101269.18
2018-08-13T09:01:04.569Z,101266.64
2018-08-13T09:04:08.915Z,101272.89
2018-08-13T09:07:12.216Z,101272.17
2018-08-13T09:10:15.681Z,101268.72
2018-08-13T09:13:19.381Z,101273.79
2018-08-13T09:16:22.671Z,101269.45
2018-08-13T09:19:37.409Z,101277.71
2018-08-13T09:22:52.049Z,101293.79
2018-08-13T09:26:06.576Z,101307.66
2018-08-13T09:29:21.154Z,101317.40
2018-08-13T09:32:35.920Z,101320.70
2018-08-13T09:35:39.175Z,101324.26
2018-08-13T09:38:42.550Z,101324.01
2018-08-13T09:41:45.929Z,101323.53
2018-08-13T09:44:50.756Z,101324.27
2018-08-13T09:47:54.756Z,101324.27
2018-08-13T09:50:59.408Z,101326.12
2018-08-13T09:54:02.979Z,101333.32
2018-08-13T09:57:06.273Z,101327.59
2018-08-13T10:00:18.045Z,101321.95
2018-08-13T10:03:21.385Z,101316.95
2018-08-13T10:06:24.670Z,101314.85
2018-08-13T10:09:29.235Z,101311.94
2018-08-13T10:12:33.579Z,101305.75
2018-08-13T10:15:36.799Z,101310.93
2018-08-13T10:18:40.151Z,101311.00
2018-08-13T10:21:44.418Z,101323.88
2018-08-13T10:24:48.201Z,101319.08
2018-08-13T10:27:52.953Z,101315.66
2018-08-13T10:30:56.820Z,101305.88
2018-08-13T10:34:01.179Z,101307.79
2018-08-13T10:37:04.392Z,101296.09
2018-08-13T10:40:10.890Z,101293.29
2018-08-13T10:43:14.212Z,101304.22
2018-08-13T10:46:17.415Z,101285.86
2018-08-13T10:49:21.765Z,101278.95
2018-08-13T10:52:25.111Z,101268.76
2018-08-13T10:55:28.532Z,101267.81
2018-08-13T10:58:31.934Z,101259.95
2018-08-13T11:01:35.209Z,101251.06
2018-08-13T11:04:39.426Z,101257.19
2018-08-13T11:07:42.679Z,101268.75
2018-08-13T11:10:45.891Z,101268.16
2018-08-13T11:13:50.145Z,101256.71
2018-08-13T11:16:53.458Z,101260.10
2018-08-13T11:19:56.800Z,101256.68
2018-08-13T11:23:00.137Z,101248.92
2018-08-13T11:26:03.862Z,101248.97
2018-08-13T11:29:10.928Z,101251.73
2018-08-13T11:32:15.147Z,101251.49
2018-08-13T11:35:18.423Z,101251.47
2018-08-13T11:38:22.771Z,101252.37
2018-08-13T11:41:27.071Z,101255.97
2018-08-13T11:44:30.331Z,101251.80
2018-08-13T11:47:37.686Z,101256.40
2018-08-13T11:50:40.923Z,101253.69
2018-08-13T11:53:45.312Z,101246.64
2018-08-13T11:56:48.628Z,101240.76
2018-08-13T11:59:52.921Z,101234.14
2018-08-13T12:02:56.216Z,101239.81
2018-08-13T12:05:59.721Z,101236.00
2018-08-13T12:09:03.064Z,101236.18
2018-08-13T12:12:06.321Z,101235.58
2018-08-13T12:15:10.748Z,101235.01
2018-08-13T12:18:15.093Z,101236.18
2018-08-13T12:21:18.405Z,101239.47
2018-08-13T12:24:21.844Z,101240.14
2018-08-13T12:27:25.064Z,101244.23
2018-08-13T12:30:28.569Z,101244.49
2018-08-13T12:33:32.067Z,101240.35
2018-08-13T12:36:35.386Z,101238.09
2018-08-13T12:39:39.692Z,101242.10
2018-08-13T12:42:43.117Z,101244.32
2018-08-13T12:45:47.611Z,101239.58
2018-08-13T12:48:50.781Z,101230.31
2018-08-13T12:51:54.095Z,101229.95
2018-08-13T12:54:57.302Z,101218.40
2018-08-13T12:58:00.623Z,101213.44
2018-08-13T13:01:10.137Z,101205.99
2018-08-13T13:04:13.463Z,101200.19
2018-08-13T13:07:16.733Z,101202.05
2018-08-13T13:10:19.949Z,101198.38
2018-08-13T13:13:24.235Z,101197.97
2018-08-13T13:16:27.584Z,101194.40
2018-08-13T13:19:30.880Z,101196.73
2018-08-13T13:22:34.478Z,101194.69
2018-08-13T13:25:37.728Z,101191.86
2018-08-13T13:28:41.792Z,101185.24
2018-08-13T13:31:45.665Z,101174.02
2018-08-13T13:34:49.098Z,101170.91
2018-08-13T13:37:52.433Z,101161.04
2018-08-13T13:40:55.958Z,101166.45
2018-08-13T13:43:59.388Z,101162.49
2018-08-13T13:47:02.794Z,101150.61
2018-08-13T13:50:07.470Z,101137.57
2018-08-13T13:53:10.728Z,101142.64
2018-08-13T13:56:14.132Z,101145.94
2018-08-13T13:59:17.470Z,101140.61
2018-08-13T14:02:20.816Z,101130.89
2018-08-13T14:05:23.992Z,101135.25
2018-08-13T14:08:27.328Z,101128.93
2018-08-13T14:11:30.640Z,101127.27
2018-08-13T14:14:34.218Z,101116.50
2018-08-13T14:17:37.522Z,101114.95
2018-08-13T14:20:40.841Z,101114.80
2018-08-13T14:23:44.820Z,101104.42
2018-08-13T14:26:48.051Z,101091.92
2018-08-13T14:29:51.380Z,101085.52
2018-08-13T14:32:55.757Z,101095.35
2018-08-13T14:35:59.055Z,101094.56
2018-08-13T14:39:02.317Z,101090.97
2018-08-13T14:42:05.799Z,101084.12
2018-08-13T14:45:11.157Z,101078.09
2018-08-13T14:48:16.426Z,101064.39
2018-08-13T14:51:19.772Z,101076.31
2018-08-13T14:54:23.076Z,101074.29
2018-08-13T14:57:26.649Z,101071.07
2018-08-13T15:00:35.298Z,101064.29
2018-08-13T15:03:38.798Z,101061.15
2018-08-13T15:06:42.048Z,101062.84
2018-08-13T15:09:46.359Z,101066.72
2018-08-13T15:12:49.593Z,101064.84
2018-08-13T15:15:59.621Z,101063.39
2018-08-13T15:19:02.951Z,101053.81
2018-08-13T15:22:06.226Z,101065.90
2018-08-13T15:25:09.649Z,101063.21
2018-08-13T15:28:13.060Z,101070.65
2018-08-13T15:31:17.271Z,101059.05
2018-08-13T15:34:20.443Z,101058.05
2018-08-13T15:37:23.725Z,101053.88
2018-08-13T15:40:27.093Z,101037.79
2018-08-13T15:43:30.397Z,101042.40
2018-08-13T15:46:33.845Z,101036.98
2018-08-13T15:49:37.273Z,101041.93
2018-08-13T15:52:40.700Z,101042.12
2018-08-13T15:55:44.831Z,101045.68
2018-08-13T15:58:48.133Z,101047.89
2018-08-13T16:01:51.440Z,101040.45
2018-08-13T16:04:54.733Z,101045.52
2018-08-13T16:07:58.574Z,101049.04
2018-08-13T16:11:01.892Z,101050.32
2018-08-13T16:14:06.419Z,101058.32
2018-08-13T16:17:09.804Z,101065.05
2018-08-13T16:20:16.120Z,101061.93
2018-08-13T16:23:19.448Z,101054.68
2018-08-13T16:26:22.856Z,101061.58
2018-08-13T16:29:26.132Z,101062.70
2018-08-13T16:32:29.532Z,101063.55
2018-08-13T16:35:32.911Z,101051.91
2018-08-13T16:38:36.219Z,101058.52
2018-08-13T16:41:39.636Z,101065.71
2018-08-13T16:44:48.069Z,101063.92
2018-08-13T16:47:51.848Z,101062.96
2018-08-13T16:50:55.264Z,101058.62
2018-08-13T16:53:58.588Z,101054.36
2018-08-13T16:57:01.906Z,101051.18
2018-08-13T17:00:07.646Z,101048.69
2018-08-13T17:03:11.052Z,101041.22
2018-08-13T17:06:14.808Z,101033.23
2018-08-13T17:09:18.142Z,101037.09
2018-08-13T17:12:21.962Z,101032.41
2018-08-13T17:15:26.368Z,101030.47
2018-08-13T17:18:31.668Z,101032.25
2018-08-13T17:21:35.012Z,101036.47
2018-08-13T17:24:38.257Z,101045.43
2018-08-13T17:27:42.338Z,101045.56
2018-08-13T17:30:45.725Z,101045.37
2018-08-13T17:33:49.127Z,101037.13
2018-08-13T17:36:52.593Z,101036.27
2018-08-13T17:39:55.980Z,101035.55
2018-08-13T17:42:59.760Z,101047.14
2018-08-13T17:46:03.038Z,101046.23
2018-08-13T17:49:06.508Z,101047.57
2018-08-13T17:52:09.823Z,101056.74
2018-08-13T17:55:13.726Z,101057.36
2018-08-13T17:58:17.887Z,101060.17
2018-08-13T18:01:21.381Z,101064.45
2018-08-13T18:04:25.473Z,101069.79
2018-08-13T18:07:29.254Z,101075.14
2018-08-13T18:10:33.804Z,101075.02
2018-08-13T18:13:37.107Z,101078.14
2018-08-13T18:16:40.560Z,101084.31
2018-08-13T18:19:43.872Z,101085.94
2018-08-13T18:22:47.310Z,101087.74
2018-08-13T18:25:50.632Z,101087.36
2018-08-13T18:28:54.249Z,101081.83
2018-08-13T18:31:57.843Z,101083.18
2018-08-13T18:35:01.140Z,101089.27
2018-08-13T18:38:04.477Z,101095.88
2018-08-13T18:41:07.812Z,101103.26
2018-08-13T18:44:11.323Z,101104.25
2018-08-13T18:47:14.599Z,101112.04
2018-08-13T18:50:19.956Z,101122.37
2018-08-13T18:53:23.397Z,101130.91
2018-08-13T18:56:26.732Z,101130.63
2018-08-13T18:59:30.065Z,101137.27
2018-08-13T19:02:33.342Z,101142.28
2018-08-13T19:05:38.663Z,101149.19
2018-08-13T19:08:42.158Z,101156.03
2018-08-13T19:11:45.556Z,101151.18
2018-08-13T19:14:48.818Z,101157.60
2018-08-13T19:17:52.384Z,101164.61
2018-08-13T19:20:56.770Z,101167.86
2018-08-13T19:24:00.077Z,101167.20
2018-08-13T19:27:03.477Z,101179.36
2018-08-13T19:30:07.639Z,101180.56
2018-08-13T19:33:11.082Z,101185.49
2018-08-13T19:36:14.409Z,101191.91
2018-08-13T19:39:17.743Z,101193.80
2018-08-13T19:42:21.013Z,101189.84
2018-08-13T19:45:25.063Z,101193.84
2018-08-13T19:48:28.336Z,101197.29
2018-08-13T19:51:31.777Z,101200.54
2018-08-13T19:54:35.240Z,101203.78
2018-08-13T19:57:38.637Z,101208.20
2018-08-13T20:00:41.937Z,101205.92
2018-08-13T20:03:45.233Z,101208.44
2018-08-13T20:06:49.095Z,101203.89
2018-08-13T20:09:52.437Z,101205.51
2018-08-13T20:12:55.794Z,101209.02
2018-08-13T20:15:59.040Z,101201.08
2018-08-13T20:19:02.650Z,101201.56
2018-08-13T20:22:11.004Z,101203.85
2018-08-13T20:25:15.945Z,101206.33
2018-08-13T20:28:19.299Z,101205.59
2018-08-13T20:31:22.575Z,101214.41
2018-08-13T20:34:27.127Z,101211.49
2018-08-13T20:37:30.569Z,101214.33
2018-08-13T20:40:33.824Z,101211.87
2018-08-13T20:43:37.220Z,101208.25
2018-08-13T20:46:40.595Z,101211.65
2018-08-13T20:49:43.996Z,101216.64
2018-08-13T20:52:48.266Z,101217.56
2018-08-13T20:55:52.536Z,101225.91
2018-08-13T20:58:56.991Z,101227.20
2018-08-13T21:02:00.348Z,101225.97
2018-08-13T21:05:03.682Z,101232.23
2018-08-13T21:08:06.987Z,101237.50
2018-08-13T21:11:10.360Z,101231.78
2018-08-13T21:14:13.644Z,101231.76
2018-08-13T21:17:16.864Z,101233.71
2018-08-13T21:20:21.948Z,101240.66
2018-08-13T21:23:26.679Z,101249.95
2018-08-13T21:26:30.161Z,101247.52
2018-08-13T21:29:33.465Z,101253.12
2018-08-13T21:32:36.904Z,101257.37
2018-08-13T21:35:40.172Z,101261.66
2018-08-13T21:38:43.644Z,101263.59
2018-08-13T21:41:47.103Z,101264.27
2018-08-13T21:44:50.504Z,101265.00
2018-08-13T21:47:54.579Z,101266.71
2018-08-13T21:50:57.864Z,101269.91
2018-08-13T21:54:01.175Z,101277.12
2018-08-13T21:57:04.455Z,101282.90
2018-08-13T22:00:15.802Z,101284.94
2018-08-13T22:03:19.097Z,101285.86
2018-08-13T22:06:22.407Z,101287.50
2018-08-13T22:09:26.628Z,101289.75
2018-08-13T22:12:30.008Z,101294.36
2018-08-13T22:15:33.746Z,101293.78
2018-08-13T22:18:37.013Z,101297.09
2018-08-13T22:21:40.370Z,101306.25
2018-08-13T22:24:55.566Z,101309.08
2018-08-13T22:27:59.311Z,101314.58
2018-08-13T22:31:03.734Z,101313.18
2018-08-13T22:34:07.902Z,101315.34
2018-08-13T22:37:11.496Z,101312.01
2018-08-13T22:40:17.248Z,101314.70
2018-08-13T22:43:20.546Z,101320.06
2018-08-13T22:46:24.953Z,101324.18
2018-08-13T22:49:28.511Z,101326.59
2018-08-13T22:52:31.959Z,101334.34
2018-08-13T22:55:35.495Z,101338.48
2018-08-13T22:58:38.846Z,101343.81
2018-08-13T23:01:42.035Z,101344.35
2018-08-13T23:04:45.376Z,101346.07
2018-08-13T23:07:48.687Z,101345.12
2018-08-13T23:10:51.976Z,101343.14
2018-08-13T23:13:55.131Z,101344.10
2018-08-13T23:16:58.416Z,101346.43
2018-08-13T23:20:01.750Z,101348.62
2018-08-13T23:23:05.049Z,101350.37
2018-08-13T23:26:08.491Z,101354.93
2018-08-13T23:29:11.738Z,101365.50
2018-08-13T23:32:15.051Z,101366.59
2018-08-13T23:35:19.377Z,101366.08
2018-08-13T23:38:22.674Z,101368.46
2018-08-13T23:41:26.887Z,101372.99
2018-08-13T23:44:31.373Z,101378.02
2018-08-13T23:47:34.545Z,101390.77
2018-08-13T23:50:37.898Z,101384.67
2018-08-13T23:53:42.225Z,101380.00
2018-08-13T23:56:45.483Z,101384.50
2018-08-13T23:59:48.794Z,101383.30
